sensor_id;sensor_type;location;lat;lon;timestamp;temperature;humidity
3562;DHT22;1795;52.074;4.754;2022-09-03T00:00:01;19.50;92.40
3562;DHT22;1795;52.074;4.754;2022-09-03T00:02:37;19.50;91.70
3562;DHT22;1795;52.074;4.754;2022-09-03T00:05:11;19.40;91.40
3562;DHT22;1795;52.074;4.754;2022-09-03T00:07:47;19.40;92.70
3562;DHT22;1795;52.074;4.754;2022-09-03T00:10:21;19.40;91.50
3562;DHT22;1795;52.074;4.754;2022-09-03T00:12:53;19.40;91.90
3562;DHT22;1795;52.074;4.754;2022-09-03T00:15:24;19.30;92.10
3562;DHT22;1795;52.074;4.754;2022-09-03T00:17:54;19.30;91.90
3562;DHT22;1795;52.074;4.754;2022-09-03T00:20:27;19.30;91.60
3562;DHT22;1795;52.074;4.754;2022-09-03T00:23:00;19.30;91.70
3562;DHT22;1795;52.074;4.754;2022-09-03T00:25:35;19.20;92.20
3562;DHT22;1795;52.074;4.754;2022-09-03T00:28:10;19.20;93.80
3562;DHT22;1795;52.074;4.754;2022-09-03T00:30:40;19.10;92.80
3562;DHT22;1795;52.074;4.754;2022-09-03T00:33:14;19.10;92.60
3562;DHT22;1795;52.074;4.754;2022-09-03T00:35:47;19.10;93.00
3562;DHT22;1795;52.074;4.754;2022-09-03T00:38:18;19.10;92.50
3562;DHT22;1795;52.074;4.754;2022-09-03T00:41:03;19.00;93.30
3562;DHT22;1795;52.074;4.754;2022-09-03T00:43:52;19.00;92.00
3562;DHT22;1795;52.074;4.754;2022-09-03T00:46:31;19.00;92.10
3562;DHT22;1795;52.074;4.754;2022-09-03T00:49:20;18.90;92.00
3562;DHT22;1795;52.074;4.754;2022-09-03T00:51:57;18.90;92.20
3562;DHT22;1795;52.074;4.754;2022-09-03T00:54:35;18.90;92.50
3562;DHT22;1795;52.074;4.754;2022-09-03T00:57:16;18.80;92.70
3562;DHT22;1795;52.074;4.754;2022-09-03T00:59:54;18.80;92.70
3562;DHT22;1795;52.074;4.754;2022-09-03T01:02:33;18.80;92.70
3562;DHT22;1795;52.074;4.754;2022-09-03T01:05:11;18.80;92.90
3562;DHT22;1795;52.074;4.754;2022-09-03T01:07:48;18.70;93.60
3562;DHT22;1795;52.074;4.754;2022-09-03T01:10:29;18.70;94.10
3562;DHT22;1795;52.074;4.754;2022-09-03T01:13:08;18.70;94.10
3562;DHT22;1795;52.074;4.754;2022-09-03T01:15:44;18.70;94.10
3562;DHT22;1795;52.074;4.754;2022-09-03T01:18:20;18.60;92.80
3562;DHT22;1795;52.074;4.754;2022-09-03T01:20:57;18.60;93.70
3562;DHT22;1795;52.074;4.754;2022-09-03T01:24:02;18.60;93.80
3562;DHT22;1795;52.074;4.754;2022-09-03T01:27:05;18.60;94.00
3562;DHT22;1795;52.074;4.754;2022-09-03T01:29:43;18.50;94.30
3562;DHT22;1795;52.074;4.754;2022-09-03T01:32:18;18.50;94.60
3562;DHT22;1795;52.074;4.754;2022-09-03T01:34:53;18.40;94.90
3562;DHT22;1795;52.074;4.754;2022-09-03T01:37:32;18.40;95.00
3562;DHT22;1795;52.074;4.754;2022-09-03T01:40:10;18.40;94.50
3562;DHT22;1795;52.074;4.754;2022-09-03T01:42:48;18.40;95.10
3562;DHT22;1795;52.074;4.754;2022-09-03T01:45:42;18.40;96.20
3562;DHT22;1795;52.074;4.754;2022-09-03T01:48:29;18.40;97.10
3562;DHT22;1795;52.074;4.754;2022-09-03T01:51:05;18.30;95.70
3562;DHT22;1795;52.074;4.754;2022-09-03T01:57:06;18.30;92.30
3562;DHT22;1795;52.074;4.754;2022-09-03T01:59:58;18.30;92.30
3562;DHT22;1795;52.074;4.754;2022-09-03T02:02:29;18.20;92.50
3562;DHT22;1795;52.074;4.754;2022-09-03T02:05:00;18.20;92.50
3562;DHT22;1795;52.074;4.754;2022-09-03T02:07:31;18.20;91.70
3562;DHT22;1795;52.074;4.754;2022-09-03T02:10:03;18.20;92.70
3562;DHT22;1795;52.074;4.754;2022-09-03T02:12:33;18.10;92.20
3562;DHT22;1795;52.074;4.754;2022-09-03T02:15:06;18.10;92.10
3562;DHT22;1795;52.074;4.754;2022-09-03T02:17:38;18.10;93.20
3562;DHT22;1795;52.074;4.754;2022-09-03T02:20:10;18.10;93.20
3562;DHT22;1795;52.074;4.754;2022-09-03T02:22:39;18.00;93.10
3562;DHT22;1795;52.074;4.754;2022-09-03T02:25:08;18.00;93.30
3562;DHT22;1795;52.074;4.754;2022-09-03T02:27:37;18.00;93.40
3562;DHT22;1795;52.074;4.754;2022-09-03T02:30:06;18.00;93.70
3562;DHT22;1795;52.074;4.754;2022-09-03T02:32:34;18.00;93.70
3562;DHT22;1795;52.074;4.754;2022-09-03T02:35:04;17.90;94.40
3562;DHT22;1795;52.074;4.754;2022-09-03T02:37:32;17.90;94.30
3562;DHT22;1795;52.074;4.754;2022-09-03T02:40:00;17.90;94.10
3562;DHT22;1795;52.074;4.754;2022-09-03T02:42:31;17.90;94.50
3562;DHT22;1795;52.074;4.754;2022-09-03T02:45:06;17.90;94.80
3562;DHT22;1795;52.074;4.754;2022-09-03T02:47:37;17.80;93.20
3562;DHT22;1795;52.074;4.754;2022-09-03T02:50:09;17.80;94.00
3562;DHT22;1795;52.074;4.754;2022-09-03T02:52:37;17.80;94.70
3562;DHT22;1795;52.074;4.754;2022-09-03T02:55:06;17.80;93.60
3562;DHT22;1795;52.074;4.754;2022-09-03T02:57:34;17.80;94.70
3562;DHT22;1795;52.074;4.754;2022-09-03T03:00:02;17.70;95.00
3562;DHT22;1795;52.074;4.754;2022-09-03T03:02:31;17.70;94.50
3562;DHT22;1795;52.074;4.754;2022-09-03T03:04:59;17.70;94.90
3562;DHT22;1795;52.074;4.754;2022-09-03T03:07:31;17.70;94.70
3562;DHT22;1795;52.074;4.754;2022-09-03T03:10:00;17.70;94.30
3562;DHT22;1795;52.074;4.754;2022-09-03T03:12:28;17.60;94.50
3562;DHT22;1795;52.074;4.754;2022-09-03T03:14:56;17.60;94.60
3562;DHT22;1795;52.074;4.754;2022-09-03T03:17:24;17.60;94.80
3562;DHT22;1795;52.074;4.754;2022-09-03T03:19:52;17.60;94.90
3562;DHT22;1795;52.074;4.754;2022-09-03T03:22:20;17.60;95.20
3562;DHT22;1795;52.074;4.754;2022-09-03T03:24:50;17.60;95.30
3562;DHT22;1795;52.074;4.754;2022-09-03T03:27:18;17.50;95.30
3562;DHT22;1795;52.074;4.754;2022-09-03T03:29:46;17.50;95.20
3562;DHT22;1795;52.074;4.754;2022-09-03T03:32:14;17.50;95.60
3562;DHT22;1795;52.074;4.754;2022-09-03T03:34:42;17.50;94.70
3562;DHT22;1795;52.074;4.754;2022-09-03T03:37:09;17.50;95.20
3562;DHT22;1795;52.074;4.754;2022-09-03T03:39:37;17.50;95.10
3562;DHT22;1795;52.074;4.754;2022-09-03T03:42:07;17.50;96.30
3562;DHT22;1795;52.074;4.754;2022-09-03T03:44:35;17.40;95.00
3562;DHT22;1795;52.074;4.754;2022-09-03T03:47:03;17.40;96.10
3562;DHT22;1795;52.074;4.754;2022-09-03T03:49:31;17.40;95.80
3562;DHT22;1795;52.074;4.754;2022-09-03T03:51:59;17.40;95.80
3562;DHT22;1795;52.074;4.754;2022-09-03T03:54:28;17.40;96.00
3562;DHT22;1795;52.074;4.754;2022-09-03T03:56:56;17.40;95.90
3562;DHT22;1795;52.074;4.754;2022-09-03T03:59:25;17.40;95.60
3562;DHT22;1795;52.074;4.754;2022-09-03T04:01:54;17.40;96.00
3562;DHT22;1795;52.074;4.754;2022-09-03T04:04:22;17.30;95.80
3562;DHT22;1795;52.074;4.754;2022-09-03T04:06:50;17.30;96.10
3562;DHT22;1795;52.074;4.754;2022-09-03T04:09:18;17.30;96.10
3562;DHT22;1795;52.074;4.754;2022-09-03T04:11:46;17.30;96.10
3562;DHT22;1795;52.074;4.754;2022-09-03T04:14:14;17.30;95.80
3562;DHT22;1795;52.074;4.754;2022-09-03T04:16:43;17.30;96.10
3562;DHT22;1795;52.074;4.754;2022-09-03T04:19:12;17.20;96.50
3562;DHT22;1795;52.074;4.754;2022-09-03T04:21:40;17.20;96.50
3562;DHT22;1795;52.074;4.754;2022-09-03T04:24:08;17.20;96.30
3562;DHT22;1795;52.074;4.754;2022-09-03T04:26:37;17.20;96.90
3562;DHT22;1795;52.074;4.754;2022-09-03T04:29:07;17.20;97.30
3562;DHT22;1795;52.074;4.754;2022-09-03T04:31:37;17.20;96.90
3562;DHT22;1795;52.074;4.754;2022-09-03T04:34:27;17.20;97.20
3562;DHT22;1795;52.074;4.754;2022-09-03T04:36:54;17.10;97.30
3562;DHT22;1795;52.074;4.754;2022-09-03T04:39:23;17.10;97.50
3562;DHT22;1795;52.074;4.754;2022-09-03T04:41:51;17.10;97.30
3562;DHT22;1795;52.074;4.754;2022-09-03T04:44:20;17.10;97.80
3562;DHT22;1795;52.074;4.754;2022-09-03T04:46:48;17.00;97.60
3562;DHT22;1795;52.074;4.754;2022-09-03T04:49:16;17.00;98.20
3562;DHT22;1795;52.074;4.754;2022-09-03T04:51:45;17.00;98.20
3562;DHT22;1795;52.074;4.754;2022-09-03T04:54:13;17.00;98.80
3562;DHT22;1795;52.074;4.754;2022-09-03T04:56:41;16.90;97.80
3562;DHT22;1795;52.074;4.754;2022-09-03T04:59:09;16.90;98.50
3562;DHT22;1795;52.074;4.754;2022-09-03T05:01:38;16.90;98.80
3562;DHT22;1795;52.074;4.754;2022-09-03T05:04:07;16.90;98.80
3562;DHT22;1795;52.074;4.754;2022-09-03T05:06:36;16.90;99.10
3562;DHT22;1795;52.074;4.754;2022-09-03T05:09:05;16.90;98.40
3562;DHT22;1795;52.074;4.754;2022-09-03T05:11:33;16.80;99.30
3562;DHT22;1795;52.074;4.754;2022-09-03T05:14:01;16.80;99.10
3562;DHT22;1795;52.074;4.754;2022-09-03T05:16:31;16.80;99.50
3562;DHT22;1795;52.074;4.754;2022-09-03T05:18:59;16.80;99.20
3562;DHT22;1795;52.074;4.754;2022-09-03T05:21:33;16.80;99.80
3562;DHT22;1795;52.074;4.754;2022-09-03T05:24:05;16.80;99.90
3562;DHT22;1795;52.074;4.754;2022-09-03T05:26:36;16.80;99.80
3562;DHT22;1795;52.074;4.754;2022-09-03T05:29:05;16.80;99.90
3562;DHT22;1795;52.074;4.754;2022-09-03T05:31:36;16.80;99.90
3562;DHT22;1795;52.074;4.754;2022-09-03T05:34:06;16.80;99.80
3562;DHT22;1795;52.074;4.754;2022-09-03T05:36:41;16.70;99.90
3562;DHT22;1795;52.074;4.754;2022-09-03T05:39:11;16.80;99.90
3562;DHT22;1795;52.074;4.754;2022-09-03T05:41:39;16.70;99.90
3562;DHT22;1795;52.074;4.754;2022-09-03T05:44:07;16.70;99.90
3562;DHT22;1795;52.074;4.754;2022-09-03T05:46:34;16.70;99.90
3562;DHT22;1795;52.074;4.754;2022-09-03T05:49:04;16.70;99.90
3562;DHT22;1795;52.074;4.754;2022-09-03T05:51:34;16.70;99.90
3562;DHT22;1795;52.074;4.754;2022-09-03T05:54:02;16.70;99.90
3562;DHT22;1795;52.074;4.754;2022-09-03T05:56:32;16.70;99.90
3562;DHT22;1795;52.074;4.754;2022-09-03T05:59:03;16.70;99.90
3562;DHT22;1795;52.074;4.754;2022-09-03T06:01:34;16.70;99.90
3562;DHT22;1795;52.074;4.754;2022-09-03T06:04:04;16.70;99.90
3562;DHT22;1795;52.074;4.754;2022-09-03T06:06:36;16.70;99.90
3562;DHT22;1795;52.074;4.754;2022-09-03T06:09:06;16.70;99.90
3562;DHT22;1795;52.074;4.754;2022-09-03T06:11:37;16.70;99.90
3562;DHT22;1795;52.074;4.754;2022-09-03T06:14:07;16.70;99.90
3562;DHT22;1795;52.074;4.754;2022-09-03T06:16:37;16.70;99.90
3562;DHT22;1795;52.074;4.754;2022-09-03T06:19:06;16.70;99.90
3562;DHT22;1795;52.074;4.754;2022-09-03T06:21:35;16.70;99.90
3562;DHT22;1795;52.074;4.754;2022-09-03T06:24:05;16.70;99.90
3562;DHT22;1795;52.074;4.754;2022-09-03T06:26:33;16.70;99.90
3562;DHT22;1795;52.074;4.754;2022-09-03T06:29:03;16.70;99.90
3562;DHT22;1795;52.074;4.754;2022-09-03T06:31:31;16.70;99.90
3562;DHT22;1795;52.074;4.754;2022-09-03T06:33:59;16.70;99.90
3562;DHT22;1795;52.074;4.754;2022-09-03T06:36:30;16.80;99.90
3562;DHT22;1795;52.074;4.754;2022-09-03T06:38:58;16.70;99.90
3562;DHT22;1795;52.074;4.754;2022-09-03T06:41:28;16.80;99.90
3562;DHT22;1795;52.074;4.754;2022-09-03T06:44:00;16.80;99.90
3562;DHT22;1795;52.074;4.754;2022-09-03T06:46:32;16.80;99.90
3562;DHT22;1795;52.074;4.754;2022-09-03T06:49:00;16.80;99.90
3562;DHT22;1795;52.074;4.754;2022-09-03T06:51:30;16.80;99.90
3562;DHT22;1795;52.074;4.754;2022-09-03T06:54:00;16.90;99.90
3562;DHT22;1795;52.074;4.754;2022-09-03T06:56:28;16.90;99.90
3562;DHT22;1795;52.074;4.754;2022-09-03T06:59:06;16.90;99.90
3562;DHT22;1795;52.074;4.754;2022-09-03T07:01:36;17.00;99.90
3562;DHT22;1795;52.074;4.754;2022-09-03T07:04:11;17.00;99.90
3562;DHT22;1795;52.074;4.754;2022-09-03T07:06:40;17.10;99.90
3562;DHT22;1795;52.074;4.754;2022-09-03T07:09:11;17.10;99.90
3562;DHT22;1795;52.074;4.754;2022-09-03T07:11:39;17.20;99.90
3562;DHT22;1795;52.074;4.754;2022-09-03T07:14:13;17.20;99.90
3562;DHT22;1795;52.074;4.754;2022-09-03T07:16:43;17.20;99.90
3562;DHT22;1795;52.074;4.754;2022-09-03T07:19:12;17.30;99.90
3562;DHT22;1795;52.074;4.754;2022-09-03T07:21:41;17.40;99.90
3562;DHT22;1795;52.074;4.754;2022-09-03T07:24:15;17.40;99.90
3562;DHT22;1795;52.074;4.754;2022-09-03T07:26:43;17.50;99.90
3562;DHT22;1795;52.074;4.754;2022-09-03T07:29:12;17.50;99.90
3562;DHT22;1795;52.074;4.754;2022-09-03T07:31:43;17.60;99.90
3562;DHT22;1795;52.074;4.754;2022-09-03T07:34:12;17.70;99.90
3562;DHT22;1795;52.074;4.754;2022-09-03T07:36:44;17.70;99.90
3562;DHT22;1795;52.074;4.754;2022-09-03T07:39:15;17.80;99.90
3562;DHT22;1795;52.074;4.754;2022-09-03T07:41:44;17.90;99.90
3562;DHT22;1795;52.074;4.754;2022-09-03T07:44:13;17.90;99.90
3562;DHT22;1795;52.074;4.754;2022-09-03T07:46:47;18.00;99.90
3562;DHT22;1795;52.074;4.754;2022-09-03T07:49:17;18.10;99.90
3562;DHT22;1795;52.074;4.754;2022-09-03T07:51:46;18.10;99.90
3562;DHT22;1795;52.074;4.754;2022-09-03T07:54:16;18.20;99.90
3562;DHT22;1795;52.074;4.754;2022-09-03T07:56:45;18.20;99.90
3562;DHT22;1795;52.074;4.754;2022-09-03T07:59:13;18.30;99.90
3562;DHT22;1795;52.074;4.754;2022-09-03T08:01:41;18.40;99.90
3562;DHT22;1795;52.074;4.754;2022-09-03T08:04:10;18.50;99.90
3562;DHT22;1795;52.074;4.754;2022-09-03T08:06:38;18.50;99.90
3562;DHT22;1795;52.074;4.754;2022-09-03T08:09:07;18.50;99.90
3562;DHT22;1795;52.074;4.754;2022-09-03T08:11:39;18.60;99.90
3562;DHT22;1795;52.074;4.754;2022-09-03T08:14:09;18.70;99.90
3562;DHT22;1795;52.074;4.754;2022-09-03T08:16:39;18.80;99.90
3562;DHT22;1795;52.074;4.754;2022-09-03T08:19:09;18.80;99.90
3562;DHT22;1795;52.074;4.754;2022-09-03T08:21:39;18.90;99.90
3562;DHT22;1795;52.074;4.754;2022-09-03T08:24:08;18.90;99.90
3562;DHT22;1795;52.074;4.754;2022-09-03T08:26:40;19.00;99.90
3562;DHT22;1795;52.074;4.754;2022-09-03T08:29:16;19.10;99.90
3562;DHT22;1795;52.074;4.754;2022-09-03T08:31:44;19.10;99.90
3562;DHT22;1795;52.074;4.754;2022-09-03T08:34:13;19.20;99.90
3562;DHT22;1795;52.074;4.754;2022-09-03T08:36:43;19.30;99.90
3562;DHT22;1795;52.074;4.754;2022-09-03T08:39:12;19.40;99.90
3562;DHT22;1795;52.074;4.754;2022-09-03T08:41:54;19.40;99.90
3562;DHT22;1795;52.074;4.754;2022-09-03T08:44:28;19.50;99.90
3562;DHT22;1795;52.074;4.754;2022-09-03T08:47:00;19.60;99.90
3562;DHT22;1795;52.074;4.754;2022-09-03T08:49:35;19.70;99.90
3562;DHT22;1795;52.074;4.754;2022-09-03T08:52:12;19.70;99.90
3562;DHT22;1795;52.074;4.754;2022-09-03T08:54:45;19.90;99.90
3562;DHT22;1795;52.074;4.754;2022-09-03T08:57:15;19.90;99.90
3562;DHT22;1795;52.074;4.754;2022-09-03T08:59:47;20.00;99.90
3562;DHT22;1795;52.074;4.754;2022-09-03T09:02:23;20.10;99.90
3562;DHT22;1795;52.074;4.754;2022-09-03T09:04:58;20.10;99.90
3562;DHT22;1795;52.074;4.754;2022-09-03T09:07:37;20.20;99.90
3562;DHT22;1795;52.074;4.754;2022-09-03T09:10:13;20.30;99.90
3562;DHT22;1795;52.074;4.754;2022-09-03T09:12:48;20.40;99.90
3562;DHT22;1795;52.074;4.754;2022-09-03T09:15:27;20.50;99.90
3562;DHT22;1795;52.074;4.754;2022-09-03T09:18:04;20.60;99.90
3562;DHT22;1795;52.074;4.754;2022-09-03T09:20:45;20.70;99.90
3562;DHT22;1795;52.074;4.754;2022-09-03T09:23:20;20.80;99.90
3562;DHT22;1795;52.074;4.754;2022-09-03T09:25:53;20.90;99.90
3562;DHT22;1795;52.074;4.754;2022-09-03T09:28:25;21.00;99.90
3562;DHT22;1795;52.074;4.754;2022-09-03T09:30:56;21.00;99.90
3562;DHT22;1795;52.074;4.754;2022-09-03T09:33:24;21.10;99.90
3562;DHT22;1795;52.074;4.754;2022-09-03T09:35:57;21.20;99.90
3562;DHT22;1795;52.074;4.754;2022-09-03T09:38:30;21.30;99.90
3562;DHT22;1795;52.074;4.754;2022-09-03T09:41:08;21.40;99.90
3562;DHT22;1795;52.074;4.754;2022-09-03T09:43:36;21.50;99.90
3562;DHT22;1795;52.074;4.754;2022-09-03T09:46:07;21.60;99.90
3562;DHT22;1795;52.074;4.754;2022-09-03T09:48:38;21.70;99.90
3562;DHT22;1795;52.074;4.754;2022-09-03T09:51:18;21.80;99.90
3562;DHT22;1795;52.074;4.754;2022-09-03T09:53:46;21.90;99.90
3562;DHT22;1795;52.074;4.754;2022-09-03T09:56:22;22.00;99.90
3562;DHT22;1795;52.074;4.754;2022-09-03T09:59:01;22.10;99.90
3562;DHT22;1795;52.074;4.754;2022-09-03T10:01:30;22.20;99.70
3562;DHT22;1795;52.074;4.754;2022-09-03T10:03:59;22.30;99.50
3562;DHT22;1795;52.074;4.754;2022-09-03T10:06:35;22.40;99.20
3562;DHT22;1795;52.074;4.754;2022-09-03T10:09:24;22.50;99.40
3562;DHT22;1795;52.074;4.754;2022-09-03T10:12:04;22.60;99.10
3562;DHT22;1795;52.074;4.754;2022-09-03T10:14:37;22.70;98.30
3562;DHT22;1795;52.074;4.754;2022-09-03T10:17:12;22.90;98.70
3562;DHT22;1795;52.074;4.754;2022-09-03T10:19:49;22.90;98.50
3562;DHT22;1795;52.074;4.754;2022-09-03T10:22:48;23.00;98.30
3562;DHT22;1795;52.074;4.754;2022-09-03T10:25:26;23.10;98.30
3562;DHT22;1795;52.074;4.754;2022-09-03T10:27:56;23.20;98.20
3562;DHT22;1795;52.074;4.754;2022-09-03T10:30:28;23.30;98.00
3562;DHT22;1795;52.074;4.754;2022-09-03T10:33:06;23.50;97.80
3562;DHT22;1795;52.074;4.754;2022-09-03T10:35:43;23.60;97.50
3562;DHT22;1795;52.074;4.754;2022-09-03T10:38:19;23.70;97.40
3562;DHT22;1795;52.074;4.754;2022-09-03T10:40:57;23.80;97.30
3562;DHT22;1795;52.074;4.754;2022-09-03T10:43:44;23.80;97.00
3562;DHT22;1795;52.074;4.754;2022-09-03T10:46:15;24.00;97.30
3562;DHT22;1795;52.074;4.754;2022-09-03T10:49:06;24.10;96.70
3562;DHT22;1795;52.074;4.754;2022-09-03T10:51:41;24.20;96.80
3562;DHT22;1795;52.074;4.754;2022-09-03T10:54:30;24.30;96.70
3562;DHT22;1795;52.074;4.754;2022-09-03T10:57:06;24.40;96.50
3562;DHT22;1795;52.074;4.754;2022-09-03T10:59:45;24.50;96.30
3562;DHT22;1795;52.074;4.754;2022-09-03T11:02:33;24.60;96.00
3562;DHT22;1795;52.074;4.754;2022-09-03T11:05:09;24.70;95.80
3562;DHT22;1795;52.074;4.754;2022-09-03T11:07:45;24.80;95.50
3562;DHT22;1795;52.074;4.754;2022-09-03T11:10:18;24.90;95.10
3562;DHT22;1795;52.074;4.754;2022-09-03T11:12:54;25.00;95.10
3562;DHT22;1795;52.074;4.754;2022-09-03T11:15:30;25.10;94.80
3562;DHT22;1795;52.074;4.754;2022-09-03T11:18:03;25.20;94.60
3562;DHT22;1795;52.074;4.754;2022-09-03T11:20:34;25.30;94.30
3562;DHT22;1795;52.074;4.754;2022-09-03T11:23:03;25.30;94.30
3562;DHT22;1795;52.074;4.754;2022-09-03T11:25:41;25.40;94.00
3562;DHT22;1795;52.074;4.754;2022-09-03T11:28:22;25.50;94.10
3562;DHT22;1795;52.074;4.754;2022-09-03T11:31:05;25.60;94.30
3562;DHT22;1795;52.074;4.754;2022-09-03T11:33:42;25.70;94.20
3562;DHT22;1795;52.074;4.754;2022-09-03T11:36:23;25.80;93.50
3562;DHT22;1795;52.074;4.754;2022-09-03T11:38:52;25.90;93.80
3562;DHT22;1795;52.074;4.754;2022-09-03T11:41:25;26.00;94.00
3562;DHT22;1795;52.074;4.754;2022-09-03T11:43:54;26.10;93.20
3562;DHT22;1795;52.074;4.754;2022-09-03T11:46:28;26.20;92.70
3562;DHT22;1795;52.074;4.754;2022-09-03T11:49:09;26.20;92.00
3562;DHT22;1795;52.074;4.754;2022-09-03T11:51:38;26.30;91.90
3562;DHT22;1795;52.074;4.754;2022-09-03T11:54:24;26.40;91.70
3562;DHT22;1795;52.074;4.754;2022-09-03T11:57:06;26.50;91.70
3562;DHT22;1795;52.074;4.754;2022-09-03T11:59:38;26.60;91.30
3562;DHT22;1795;52.074;4.754;2022-09-03T12:02:16;26.70;91.00
3562;DHT22;1795;52.074;4.754;2022-09-03T12:04:51;26.80;90.00
3562;DHT22;1795;52.074;4.754;2022-09-03T12:07:41;26.80;88.80
3562;DHT22;1795;52.074;4.754;2022-09-03T12:10:31;26.90;87.90
3562;DHT22;1795;52.074;4.754;2022-09-03T12:13:21;27.00;88.30
3562;DHT22;1795;52.074;4.754;2022-09-03T12:16:10;27.10;88.90
3562;DHT22;1795;52.074;4.754;2022-09-03T12:18:41;27.20;86.20
3562;DHT22;1795;52.074;4.754;2022-09-03T12:21:10;27.20;86.60
3562;DHT22;1795;52.074;4.754;2022-09-03T12:23:41;27.30;84.90
3562;DHT22;1795;52.074;4.754;2022-09-03T12:26:12;27.40;86.50
3562;DHT22;1795;52.074;4.754;2022-09-03T12:28:44;27.40;86.30
3562;DHT22;1795;52.074;4.754;2022-09-03T12:31:18;27.50;86.00
3562;DHT22;1795;52.074;4.754;2022-09-03T12:33:53;27.50;83.60
3562;DHT22;1795;52.074;4.754;2022-09-03T12:36:22;27.60;83.60
3562;DHT22;1795;52.074;4.754;2022-09-03T12:38:50;27.70;83.10
3562;DHT22;1795;52.074;4.754;2022-09-03T12:41:45;27.70;84.10
3562;DHT22;1795;52.074;4.754;2022-09-03T12:44:25;27.80;84.00
3562;DHT22;1795;52.074;4.754;2022-09-03T12:47:00;27.80;83.60
3562;DHT22;1795;52.074;4.754;2022-09-03T12:49:50;27.90;83.20
3562;DHT22;1795;52.074;4.754;2022-09-03T12:52:22;27.90;81.70
3562;DHT22;1795;52.074;4.754;2022-09-03T12:54:55;28.00;82.00
3562;DHT22;1795;52.074;4.754;2022-09-03T12:57:27;28.00;80.40
3562;DHT22;1795;52.074;4.754;2022-09-03T13:00:05;28.10;79.50
3562;DHT22;1795;52.074;4.754;2022-09-03T13:02:36;28.00;78.50
3562;DHT22;1795;52.074;4.754;2022-09-03T13:05:13;28.00;75.90
3562;DHT22;1795;52.074;4.754;2022-09-03T13:07:45;28.00;76.20
3562;DHT22;1795;52.074;4.754;2022-09-03T13:10:24;28.10;75.90
3562;DHT22;1795;52.074;4.754;2022-09-03T13:12:57;28.10;77.80
3562;DHT22;1795;52.074;4.754;2022-09-03T13:15:28;28.10;76.30
3562;DHT22;1795;52.074;4.754;2022-09-03T13:18:14;28.00;75.50
3562;DHT22;1795;52.074;4.754;2022-09-03T13:21:03;28.00;76.20
3562;DHT22;1795;52.074;4.754;2022-09-03T13:23:47;28.00;76.50
3562;DHT22;1795;52.074;4.754;2022-09-03T13:26:28;28.20;77.90
3562;DHT22;1795;52.074;4.754;2022-09-03T13:31:59;28.40;74.80
3562;DHT22;1795;52.074;4.754;2022-09-03T13:34:34;28.50;76.40
3562;DHT22;1795;52.074;4.754;2022-09-03T13:37:11;28.50;75.60
3562;DHT22;1795;52.074;4.754;2022-09-03T13:39:48;28.60;74.20
3562;DHT22;1795;52.074;4.754;2022-09-03T13:42:23;28.60;74.30
3562;DHT22;1795;52.074;4.754;2022-09-03T13:44:56;28.70;72.40
3562;DHT22;1795;52.074;4.754;2022-09-03T13:47:31;28.70;69.50
3562;DHT22;1795;52.074;4.754;2022-09-03T13:50:05;28.80;69.60
3562;DHT22;1795;52.074;4.754;2022-09-03T13:52:53;28.80;70.50
3562;DHT22;1795;52.074;4.754;2022-09-03T13:55:30;29.00;70.40
3562;DHT22;1795;52.074;4.754;2022-09-03T13:58:03;29.10;70.30
3562;DHT22;1795;52.074;4.754;2022-09-03T14:00:39;29.20;67.90
3562;DHT22;1795;52.074;4.754;2022-09-03T14:03:11;29.10;68.00
3562;DHT22;1795;52.074;4.754;2022-09-03T14:05:59;29.20;67.40
3562;DHT22;1795;52.074;4.754;2022-09-03T14:08:34;29.30;68.50
3562;DHT22;1795;52.074;4.754;2022-09-03T14:11:20;29.40;67.50
3562;DHT22;1795;52.074;4.754;2022-09-03T14:14:05;29.50;68.00
3562;DHT22;1795;52.074;4.754;2022-09-03T14:16:41;29.70;69.30
3562;DHT22;1795;52.074;4.754;2022-09-03T14:19:15;29.80;68.30
3562;DHT22;1795;52.074;4.754;2022-09-03T14:21:49;30.00;67.50
3562;DHT22;1795;52.074;4.754;2022-09-03T14:24:23;30.00;66.00
3562;DHT22;1795;52.074;4.754;2022-09-03T14:26:55;30.20;65.60
3562;DHT22;1795;52.074;4.754;2022-09-03T14:29:26;30.20;65.20
3562;DHT22;1795;52.074;4.754;2022-09-03T14:32:21;30.20;64.90
3562;DHT22;1795;52.074;4.754;2022-09-03T14:35:18;30.30;63.70
3562;DHT22;1795;52.074;4.754;2022-09-03T14:38:01;30.40;61.30
3562;DHT22;1795;52.074;4.754;2022-09-03T14:40:39;30.40;62.10
3562;DHT22;1795;52.074;4.754;2022-09-03T14:43:18;30.40;62.00
3562;DHT22;1795;52.074;4.754;2022-09-03T14:45:58;30.50;60.50
3562;DHT22;1795;52.074;4.754;2022-09-03T14:48:41;30.60;60.50
3562;DHT22;1795;52.074;4.754;2022-09-03T14:51:26;30.70;59.80
3562;DHT22;1795;52.074;4.754;2022-09-03T14:56:52;30.70;60.30
3562;DHT22;1795;52.074;4.754;2022-09-03T14:59:41;30.80;59.60
3562;DHT22;1795;52.074;4.754;2022-09-03T15:05:20;30.80;58.60
3562;DHT22;1795;52.074;4.754;2022-09-03T15:07:59;30.80;58.20
3562;DHT22;1795;52.074;4.754;2022-09-03T15:10:33;30.80;57.40
3562;DHT22;1795;52.074;4.754;2022-09-03T15:13:09;30.80;58.90
3562;DHT22;1795;52.074;4.754;2022-09-03T15:15:53;30.90;58.70
3562;DHT22;1795;52.074;4.754;2022-09-03T15:18:29;30.90;59.00
3562;DHT22;1795;52.074;4.754;2022-09-03T15:21:04;30.90;58.80
3562;DHT22;1795;52.074;4.754;2022-09-03T15:23:49;30.90;58.90
3562;DHT22;1795;52.074;4.754;2022-09-03T15:26:37;30.90;58.60
3562;DHT22;1795;52.074;4.754;2022-09-03T15:29:18;31.00;57.20
3562;DHT22;1795;52.074;4.754;2022-09-03T15:31:54;30.90;57.20
3562;DHT22;1795;52.074;4.754;2022-09-03T15:34:37;30.90;57.10
3562;DHT22;1795;52.074;4.754;2022-09-03T15:37:12;30.90;56.80
3562;DHT22;1795;52.074;4.754;2022-09-03T15:39:45;30.90;58.10
3562;DHT22;1795;52.074;4.754;2022-09-03T15:42:20;30.90;57.80
3562;DHT22;1795;52.074;4.754;2022-09-03T15:44:53;30.90;57.70
3562;DHT22;1795;52.074;4.754;2022-09-03T15:47:36;30.90;56.70
3562;DHT22;1795;52.074;4.754;2022-09-03T15:50:28;30.80;55.30
3562;DHT22;1795;52.074;4.754;2022-09-03T15:53:02;30.80;55.20
3562;DHT22;1795;52.074;4.754;2022-09-03T15:55:34;30.70;54.80
3562;DHT22;1795;52.074;4.754;2022-09-03T15:58:10;30.70;54.30
3562;DHT22;1795;52.074;4.754;2022-09-03T16:00:59;30.60;54.60
3562;DHT22;1795;52.074;4.754;2022-09-03T16:03:35;30.50;54.80
3562;DHT22;1795;52.074;4.754;2022-09-03T16:06:24;30.50;54.90
3562;DHT22;1795;52.074;4.754;2022-09-03T16:09:09;30.40;55.20
3562;DHT22;1795;52.074;4.754;2022-09-03T16:11:53;30.30;55.70
3562;DHT22;1795;52.074;4.754;2022-09-03T16:14:27;30.20;55.50
3562;DHT22;1795;52.074;4.754;2022-09-03T16:17:01;30.10;56.20
3562;DHT22;1795;52.074;4.754;2022-09-03T16:19:36;30.00;56.70
3562;DHT22;1795;52.074;4.754;2022-09-03T16:22:14;29.90;56.80
3562;DHT22;1795;52.074;4.754;2022-09-03T16:24:49;29.80;57.50
3562;DHT22;1795;52.074;4.754;2022-09-03T16:27:22;29.80;56.80
3562;DHT22;1795;52.074;4.754;2022-09-03T16:30:00;29.60;56.90
3562;DHT22;1795;52.074;4.754;2022-09-03T16:32:43;29.50;57.50
3562;DHT22;1795;52.074;4.754;2022-09-03T16:35:21;29.40;57.20
3562;DHT22;1795;52.074;4.754;2022-09-03T16:38:03;29.30;57.70
3562;DHT22;1795;52.074;4.754;2022-09-03T16:40:39;29.20;57.50
3562;DHT22;1795;52.074;4.754;2022-09-03T16:43:17;29.10;58.10
3562;DHT22;1795;52.074;4.754;2022-09-03T16:46:16;29.00;59.30
3562;DHT22;1795;52.074;4.754;2022-09-03T16:48:57;28.90;60.60
3562;DHT22;1795;52.074;4.754;2022-09-03T16:51:37;28.80;60.30
3562;DHT22;1795;52.074;4.754;2022-09-03T16:54:20;28.80;61.30
3562;DHT22;1795;52.074;4.754;2022-09-03T16:57:04;28.70;62.20
3562;DHT22;1795;52.074;4.754;2022-09-03T16:59:46;28.60;63.30